Atwater, Illinois
Current Conditions -  °F | °C
As of 9:55 PM on Wednesday 22 Oct 2014 (Local Time) from K3LF Reporting Station
Clear Clear  
Wind Chill: 44°   Ceiling: Unl
Heat Index: 44°   Visibility: 10mi
Dew Point: 37°   Wind: 3mph
Humidity: 78%   Direction: 110°ESE
Pressure: 30.25"   Gusts: NA
Location:  39.33°N, 89.72°W
Report Text: K3LF 230255Z AUTO 11003KT 10SM CLR 07/03 A3025 RMK AO2 T00660030
Loading
Personal Weather Stations






























Interactive Weather Map
Tropical Storm Tracking
New forecast layout! Learn more

10-Day Weather Forecast

Advertisements
Track Severe Weather on mobile